Time;durP1;ratioP1;P1;durP2;ratioP2;P2;SDS_P1;SDS_P2;PMS_P1;PMS_P2;Temp;Humidity;BMP_temperature;BMP_pressure;BME280_temperature;BME280_humidity;BME280_pressure;Samples;Min_cycle;Max_cycle;Signal;HPM_P1;HPM_P2
2023/04/08 00:02:23;;;;;;;53.10;25.30;;;5.70;99.90;;;;;;5068413;28;20024;-54
2023/04/08 00:04:49;;;;;;;54.50;26.15;;;5.60;99.90;;;;;;5070034;28;20507;-53
2023/04/08 00:07:14;;;;;;;50.58;24.92;;;5.60;99.90;;;;;;5072466;28;20034;-52
2023/04/08 00:09:40;;;;;;;55.10;25.00;;;5.60;99.90;;;;;;5072824;28;20020;-52
2023/04/08 00:12:06;;;;;;;57.65;26.83;;;5.60;99.90;;;;;;5073156;28;20495;-51
2023/04/08 00:14:31;;;;;;;52.10;26.73;;;5.50;99.90;;;;;;5088917;28;20031;-49
2023/04/08 00:16:57;;;;;;;53.70;24.73;;;5.50;99.90;;;;;;5071749;28;20027;-51
2023/04/08 00:19:22;;;;;;;50.05;24.33;;;5.60;99.90;;;;;;5090279;28;20388;-53
2023/04/08 00:21:48;;;;;;;52.90;25.75;;;5.50;99.90;;;;;;5084132;28;20025;-54
2023/04/08 00:24:13;;;;;;;49.47;24.92;;;5.50;99.90;;;;;;5070634;28;20021;-51
2023/04/08 00:26:39;;;;;;;61.13;28.40;;;5.60;99.90;;;;;;5085258;28;20484;-52
2023/04/08 00:29:05;;;;;;;53.58;25.30;;;5.50;99.90;;;;;;5070601;28;20092;-54
2023/04/08 00:31:30;;;;;;;48.72;24.65;;;5.60;99.90;;;;;;5086484;28;20111;-50
2023/04/08 00:33:56;;;;;;;55.15;27.83;;;5.60;99.90;;;;;;5070191;28;20131;-53
2023/04/08 00:36:22;;;;;;;45.97;23.25;;;5.50;99.90;;;;;;5086249;28;20027;-54
2023/04/08 00:38:47;;;;;;;51.05;25.65;;;5.50;99.90;;;;;;5070127;28;20021;-49
2023/04/08 00:41:13;;;;;;;53.65;26.55;;;5.50;99.90;;;;;;5088321;28;20038;-54
2023/04/08 00:43:38;;;;;;;54.63;25.42;;;5.60;99.90;;;;;;5068905;28;20089;-52
2023/04/08 00:46:04;;;;;;;54.50;24.15;;;5.60;99.90;;;;;;5089469;28;20024;-54
2023/04/08 00:48:30;;;;;;;57.17;27.15;;;5.60;99.90;;;;;;5068592;28;20112;-53
2023/04/08 00:50:57;;;;;;;52.05;23.65;;;5.60;99.90;;;;;;5089462;28;20111;-51
2023/04/08 00:53:22;;;;;;;52.88;24.60;;;5.60;99.90;;;;;;5068703;28;20017;-54
2023/04/08 00:55:48;;;;;;;54.85;25.10;;;5.60;99.90;;;;;;5088770;28;20028;-53
2023/04/08 00:58:14;;;;;;;56.72;25.20;;;5.60;99.90;;;;;;5068571;28;20107;-55
2023/04/08 01:00:43;;;;;;;54.55;27.20;;;5.60;99.90;;;;;;5089462;28;20028;-54
2023/04/08 01:03:26;;;;;;;57.30;26.05;;;5.60;99.90;;;;;;5066925;28;20025;-50
2023/04/08 01:06:19;;;;;;;53.50;28.05;;;5.50;99.90;;;;;;5067550;28;20795;-48
2023/04/08 01:08:45;;;;;;;68.60;27.52;;;5.60;99.90;;;;;;5086521;28;20042;-52
2023/04/08 01:11:13;;;;;;;69.63;31.48;;;5.60;99.90;;;;;;5089695;28;20040;-55
2023/04/08 01:13:41;;;;;;;62.33;27.75;;;5.50;99.90;;;;;;5067993;28;20040;-49
2023/04/08 01:16:12;;;;;;;54.60;26.58;;;5.60;99.90;;;;;;5089300;28;20024;-51
2023/04/08 01:18:40;;;;;;;65.90;28.83;;;5.60;99.90;;;;;;5067832;28;20511;-50
2023/04/08 01:21:06;;;;;;;62.33;28.45;;;5.60;99.90;;;;;;5089219;28;20059;-53
2023/04/08 01:23:42;;;;;;;64.05;27.27;;;5.60;99.90;;;;;;5068023;28;20024;-54
2023/04/08 01:26:11;;;;;;;60.15;28.33;;;5.60;99.90;;;;;;5049424;28;20032;-53
2023/04/08 01:28:39;;;;;;;61.28;27.17;;;5.60;99.90;;;;;;5087436;28;20036;-50
2023/04/08 01:31:06;;;;;;;63.47;27.48;;;5.60;99.90;;;;;;5089448;28;20023;-50
2023/04/08 01:33:32;;;;;;;71.65;30.17;;;5.60;99.90;;;;;;5078337;28;20032;-52
2023/04/08 01:35:59;;;;;;;73.28;30.75;;;5.70;99.90;;;;;;5068287;28;20093;-52
2023/04/08 01:38:26;;;;;;;60.38;29.42;;;5.70;99.90;;;;;;5087103;28;20124;-53
2023/04/08 01:40:53;;;;;;;71.18;30.55;;;5.70;99.90;;;;;;5089290;28;20404;-54
2023/04/08 01:43:19;;;;;;;63.88;29.35;;;5.70;99.90;;;;;;5067572;28;20040;-52
2023/04/08 01:45:46;;;;;;;64.40;28.88;;;5.70;99.90;;;;;;5088728;28;20059;-52
2023/04/08 01:48:13;;;;;;;75.82;32.90;;;5.70;99.90;;;;;;5067538;28;20036;-53
2023/04/08 01:50:41;;;;;;;79.55;32.35;;;5.70;99.90;;;;;;5088669;28;20119;-52
2023/04/08 01:53:09;;;;;;;84.22;34.95;;;5.70;99.90;;;;;;5067333;28;20028;-53
2023/04/08 01:55:37;;;;;;;64.72;29.48;;;5.70;99.90;;;;;;5088688;28;20024;-52
2023/04/08 01:58:06;;;;;;;81.95;34.90;;;5.70;99.90;;;;;;5067390;28;20393;-51
2023/04/08 02:00:33;;;;;;;79.85;35.25;;;5.70;99.90;;;;;;5088780;28;20111;-53
2023/04/08 02:03:00;;;;;;;97.88;39.75;;;5.60;99.90;;;;;;5067199;28;20032;-49
2023/04/08 02:05:25;;;;;;;87.00;37.63;;;5.60;99.90;;;;;;5074475;28;20047;-50
2023/04/08 02:07:51;;;;;;;76.35;35.67;;;5.60;99.90;;;;;;5083150;28;20044;-51
2023/04/08 02:10:16;;;;;;;77.45;36.13;;;5.60;99.90;;;;;;5089011;28;20034;-52
2023/04/08 02:12:43;;;;;;;94.10;37.20;;;5.60;99.90;;;;;;5070220;28;20911;-51
2023/04/08 02:15:09;;;;;;;82.57;35.13;;;5.60;99.90;;;;;;5088921;28;20093;-50
2023/04/08 02:17:43;;;;;;;69.35;33.90;;;5.70;99.90;;;;;;5086619;28;20085;-47
2023/04/08 02:20:22;;;;;;;79.80;35.75;;;5.70;99.90;;;;;;5048042;28;20083;-52
2023/04/08 02:23:08;;;;;;;82.93;36.33;;;5.70;99.90;;;;;;5085809;28;20028;-52
2023/04/08 02:25:36;;;;;;;82.28;33.90;;;5.70;99.90;;;;;;5086243;28;20066;-51
2023/04/08 02:28:04;;;;;;;85.20;35.85;;;5.70;99.90;;;;;;5067251;28;20592;-52
2023/04/08 02:30:33;;;;;;;89.20;37.08;;;5.70;99.90;;;;;;5088512;28;20031;-51
2023/04/08 02:33:02;;;;;;;88.00;39.47;;;5.70;99.90;;;;;;5060458;28;20559;-52
2023/04/08 02:35:28;;;;;;;84.35;37.55;;;5.70;99.90;;;;;;5088775;28;20031;-53
2023/04/08 02:37:53;;;;;;;89.80;36.83;;;5.70;99.90;;;;;;5067214;28;20029;-52
2023/04/08 02:40:24;;;;;;;92.47;38.60;;;5.70;99.90;;;;;;5087784;28;20035;-51
2023/04/08 02:42:50;;;;;;;94.07;39.90;;;5.60;99.90;;;;;;5066935;28;20103;-52
2023/04/08 02:45:16;;;;;;;93.55;39.40;;;5.70;99.90;;;;;;5087988;28;20103;-47
2023/04/08 02:47:41;;;;;;;85.60;38.13;;;5.60;99.90;;;;;;5067053;28;20820;-53
2023/04/08 02:50:07;;;;;;;98.32;40.33;;;5.60;99.90;;;;;;5086613;28;20028;-50
2023/04/08 02:52:32;;;;;;;99.13;41.15;;;5.60;99.90;;;;;;5067160;28;20029;-54
2023/04/08 02:54:58;;;;;;;98.03;39.22;;;5.70;99.90;;;;;;5087705;28;20036;-51
2023/04/08 02:57:23;;;;;;;91.00;37.47;;;5.70;99.90;;;;;;5066953;28;20377;-49
2023/04/08 02:59:49;;;;;;;87.10;38.78;;;5.70;99.90;;;;;;5087658;28;20032;-53
2023/04/08 03:02:14;;;;;;;100.00;40.75;;;5.70;99.90;;;;;;5067039;28;20438;-51
2023/04/08 03:04:40;;;;;;;89.43;37.17;;;5.70;99.90;;;;;;5085320;28;20103;-51
2023/04/08 03:07:06;;;;;;;85.75;37.90;;;5.70;99.90;;;;;;5085374;28;20036;-50
2023/04/08 03:09:31;;;;;;;81.55;37.20;;;5.70;99.90;;;;;;5066806;28;20025;-51
2023/04/08 03:11:57;;;;;;;73.85;34.88;;;5.70;99.90;;;;;;5087589;28;20028;-52
2023/04/08 03:14:22;;;;;;;87.82;34.92;;;5.80;99.90;;;;;;5067031;28;20511;-54
2023/04/08 03:16:48;;;;;;;88.72;39.55;;;5.80;99.90;;;;;;5087653;28;20085;-50
2023/04/08 03:19:13;;;;;;;88.50;39.53;;;5.80;99.90;;;;;;5068916;28;20585;-53
2023/04/08 03:21:39;;;;;;;93.35;37.40;;;5.80;99.90;;;;;;5091431;28;20047;-50
2023/04/08 03:24:04;;;;;;;92.55;37.83;;;5.80;99.90;;;;;;5070691;28;20020;-50
2023/04/08 03:26:30;;;;;;;86.63;37.38;;;5.80;99.90;;;;;;5091218;28;20040;-51
2023/04/08 03:28:55;;;;;;;86.78;38.30;;;5.80;99.90;;;;;;5070320;28;20037;-53
2023/04/08 03:31:21;;;;;;;82.28;36.28;;;5.80;99.90;;;;;;5091244;28;20107;-51
2023/04/08 03:33:46;;;;;;;95.00;41.20;;;5.80;99.90;;;;;;5070077;28;20060;-52
2023/04/08 03:36:12;;;;;;;91.97;39.42;;;5.80;99.90;;;;;;5089785;28;20032;-52
2023/04/08 03:38:37;;;;;;;82.50;36.83;;;5.80;99.90;;;;;;5080695;28;20036;-54
2023/04/08 03:41:03;;;;;;;88.97;36.53;;;5.80;99.90;;;;;;5091419;28;20084;-49
2023/04/08 03:43:29;;;;;;;78.93;35.45;;;5.90;99.90;;;;;;5079284;28;20115;-49
2023/04/08 03:45:55;;;;;;;85.30;35.58;;;5.90;99.90;;;;;;5091462;28;20480;-51
2023/04/08 03:48:22;;;;;;;75.35;32.28;;;5.90;99.90;;;;;;5076777;28;20043;-51
2023/04/08 03:50:47;;;;;;;84.85;35.50;;;5.90;99.90;;;;;;5091456;28;20074;-53
2023/04/08 03:53:13;;;;;;;74.80;35.22;;;5.90;99.90;;;;;;5076994;28;20032;-51
2023/04/08 03:55:38;;;;;;;77.35;35.65;;;5.90;99.90;;;;;;5091394;28;20035;-52
2023/04/08 03:58:04;;;;;;;76.93;33.97;;;5.90;99.90;;;;;;5089314;28;20657;-52
2023/04/08 04:00:30;;;;;;;75.88;35.15;;;5.90;99.90;;;;;;5091414;28;20111;-52
2023/04/08 04:02:55;;;;;;;89.53;39.00;;;5.90;99.90;;;;;;5074370;28;20107;-51
2023/04/08 04:05:21;;;;;;;88.43;40.25;;;5.90;99.90;;;;;;5085153;28;20021;-49
2023/04/08 04:07:47;;;;;;;85.75;37.72;;;5.80;99.90;;;;;;5085558;28;20041;-53
2023/04/08 04:10:13;;;;;;;91.57;38.47;;;5.90;99.90;;;;;;5070986;28;20041;-51
2023/04/08 04:12:38;;;;;;;77.00;34.80;;;5.80;99.90;;;;;;5085034;28;20059;-51
2023/04/08 04:15:04;;;;;;;90.60;37.30;;;5.90;99.90;;;;;;5070907;28;20028;-50
2023/04/08 04:17:30;;;;;;;80.13;35.75;;;5.90;99.90;;;;;;5088522;28;20098;-53
2023/04/08 04:19:55;;;;;;;76.78;32.97;;;5.90;99.90;;;;;;5091077;28;20515;-54
2023/04/08 04:22:21;;;;;;;77.15;33.72;;;5.90;99.90;;;;;;5071257;28;20103;-51
2023/04/08 04:24:49;;;;;;;70.78;33.95;;;5.90;99.90;;;;;;5088796;28;20028;-50
2023/04/08 04:27:17;;;;;;;82.82;33.58;;;5.90;99.90;;;;;;5090608;28;20032;-52
2023/04/08 04:29:43;;;;;;;78.18;34.85;;;6.00;99.90;;;;;;5068306;28;20029;-52
2023/04/08 04:32:08;;;;;;;82.28;36.78;;;6.00;99.90;;;;;;5089654;28;20070;-53
2023/04/08 04:34:34;;;;;;;77.25;35.72;;;5.90;99.90;;;;;;5069167;28;20072;-50
2023/04/08 04:37:00;;;;;;;83.50;36.08;;;5.90;99.90;;;;;;5089757;28;20024;-49
2023/04/08 04:39:25;;;;;;;80.55;35.10;;;5.90;99.90;;;;;;5069237;28;20036;-49
2023/04/08 04:41:50;;;;;;;82.75;34.85;;;5.90;99.90;;;;;;5089729;28;20408;-54
2023/04/08 04:44:16;;;;;;;77.85;33.58;;;5.90;99.90;;;;;;5069058;28;20036;-50
2023/04/08 04:46:42;;;;;;;80.38;35.55;;;5.90;99.90;;;;;;5089733;28;20071;-51
2023/04/08 04:49:07;;;;;;;80.93;35.53;;;5.90;99.90;;;;;;5067676;28;20031;-52
2023/04/08 04:51:33;;;;;;;78.13;35.60;;;5.90;99.90;;;;;;5089562;28;20495;-49
2023/04/08 04:53:58;;;;;;;69.65;34.20;;;5.90;99.90;;;;;;5068822;28;20039;-53
2023/04/08 04:56:25;;;;;;;72.18;34.08;;;5.90;99.90;;;;;;5089550;28;20028;-52
2023/04/08 04:58:50;;;;;;;69.38;31.55;;;5.90;99.90;;;;;;5068533;28;20028;-54
2023/04/08 05:01:16;;;;;;;66.03;31.23;;;5.90;99.90;;;;;;5089471;28;20396;-49
2023/04/08 05:03:41;;;;;;;71.80;32.83;;;6.00;99.90;;;;;;5078217;28;20032;-51
2023/04/08 05:06:07;;;;;;;69.28;32.50;;;6.10;99.90;;;;;;5084932;28;20035;-49
2023/04/08 05:08:32;;;;;;;67.90;31.10;;;6.00;99.90;;;;;;5077979;28;20385;-51
2023/04/08 05:11:00;;;;;;;69.97;31.70;;;6.10;99.90;;;;;;5089810;28;20036;-51
2023/04/08 05:13:27;;;;;;;67.15;32.55;;;6.00;99.90;;;;;;5076741;28;20462;-53
2023/04/08 05:15:52;;;;;;;77.45;35.75;;;6.10;99.90;;;;;;5089816;28;20031;-52
2023/04/08 05:18:18;;;;;;;60.95;31.98;;;6.10;99.90;;;;;;5070399;28;20055;-51
2023/04/08 05:20:44;;;;;;;70.22;34.63;;;6.20;99.90;;;;;;5084337;28;20043;-52
2023/04/08 05:23:09;;;;;;;72.45;34.28;;;6.10;99.90;;;;;;5063997;28;20029;-63
2023/04/08 05:25:35;;;;;;;64.55;31.42;;;6.20;99.90;;;;;;5075277;28;20032;-56
2023/04/08 05:28:01;;;;;;;71.03;32.20;;;6.20;99.90;;;;;;5066215;28;20147;-50
2023/04/08 05:30:26;;;;;;;63.88;29.65;;;6.20;99.90;;;;;;5086574;28;20119;-53
2023/04/08 05:32:52;;;;;;;62.90;27.55;;;6.30;99.90;;;;;;5066155;28;20039;-55
2023/04/08 05:35:17;;;;;;;67.70;30.23;;;6.30;99.90;;;;;;5067256;28;20039;-53
2023/04/08 05:37:42;;;;;;;64.30;31.13;;;6.40;99.90;;;;;;5083868;28;20035;-50
2023/04/08 05:40:08;;;;;;;64.32;30.80;;;6.40;99.90;;;;;;5067065;28;20024;-52
2023/04/08 05:42:34;;;;;;;60.13;30.15;;;6.40;99.90;;;;;;5068021;28;20032;-53
2023/04/08 05:45:00;;;;;;;58.75;29.23;;;6.40;99.90;;;;;;5067518;28;20092;-54
2023/04/08 05:47:25;;;;;;;60.42;29.77;;;6.40;99.90;;;;;;5070687;28;20072;-52
2023/04/08 05:49:51;;;;;;;66.28;30.77;;;6.40;99.90;;;;;;5080029;28;20035;-55
2023/04/08 05:52:16;;;;;;;61.17;27.95;;;6.50;99.90;;;;;;5082586;28;20777;-54
2023/04/08 05:54:43;;;;;;;61.70;28.38;;;6.50;99.90;;;;;;5085822;28;20032;-53
2023/04/08 05:57:10;;;;;;;59.05;30.08;;;6.50;99.90;;;;;;5082618;28;20055;-51
2023/04/08 05:59:36;;;;;;;61.58;28.33;;;6.50;99.90;;;;;;5081422;28;20041;-54
2023/04/08 06:02:01;;;;;;;63.80;31.13;;;6.50;99.90;;;;;;5082221;28;20524;-51
2023/04/08 06:04:27;;;;;;;57.60;29.58;;;6.50;99.90;;;;;;5067953;28;20041;-54
2023/04/08 06:06:53;;;;;;;51.63;26.17;;;6.60;99.90;;;;;;5070660;28;20093;-54
2023/04/08 06:09:18;;;;;;;57.22;27.55;;;6.60;99.90;;;;;;5084266;28;20084;-53
2023/04/08 06:11:46;;;;;;;55.03;26.90;;;6.70;99.90;;;;;;5071265;28;20028;-54
2023/04/08 06:14:11;;;;;;;48.38;26.42;;;6.70;99.90;;;;;;5086072;28;20036;-50
2023/04/08 06:16:37;;;;;;;50.22;26.77;;;6.70;99.90;;;;;;5068223;28;20036;-52
2023/04/08 06:19:02;;;;;;;57.72;28.60;;;6.70;99.90;;;;;;5073676;28;20043;-53
2023/04/08 06:21:30;;;;;;;50.67;26.63;;;6.70;99.90;;;;;;5081727;28;21967;-51
2023/04/08 06:23:55;;;;;;;42.80;22.13;;;6.80;99.90;;;;;;5086092;28;20040;-52
2023/04/08 06:26:21;;;;;;;50.10;25.20;;;6.80;99.90;;;;;;5071901;28;20603;-53
2023/04/08 06:28:46;;;;;;;50.60;25.38;;;6.90;99.90;;;;;;5066595;28;20044;-54
2023/04/08 06:31:12;;;;;;;52.22;26.60;;;6.90;99.90;;;;;;5076451;28;20028;-52
2023/04/08 06:33:37;;;;;;;52.85;27.85;;;7.00;99.90;;;;;;5077048;28;20131;-51
2023/04/08 06:36:07;;;;;;;51.67;27.13;;;7.00;99.90;;;;;;5082460;28;20039;-55
2023/04/08 06:38:32;;;;;;;51.90;27.30;;;7.00;99.90;;;;;;5081856;28;20566;-51
2023/04/08 06:41:10;;;;;;;48.35;25.85;;;7.00;99.90;;;;;;5082614;28;20020;-52
2023/04/08 06:43:36;;;;;;;51.30;25.42;;;7.20;99.90;;;;;;5086188;28;20522;-54
2023/04/08 06:46:02;;;;;;;56.28;27.08;;;7.20;99.90;;;;;;5073087;28;20511;-54
2023/04/08 06:48:29;;;;;;;49.10;26.80;;;7.20;99.90;;;;;;5074354;28;20060;-53
2023/04/08 06:50:56;;;;;;;49.28;27.13;;;7.30;99.90;;;;;;5078184;28;20280;-53
2023/04/08 06:53:23;;;;;;;53.22;28.90;;;7.30;99.90;;;;;;5066478;28;20038;-54
2023/04/08 06:55:50;;;;;;;48.35;26.75;;;7.30;99.90;;;;;;5071754;28;20032;-54
2023/04/08 06:58:16;;;;;;;43.20;26.23;;;7.30;99.90;;;;;;5081209;28;20040;-53
2023/04/08 07:00:42;;;;;;;45.65;23.10;;;7.40;99.90;;;;;;5077173;28;20416;-51
2023/04/08 07:03:08;;;;;;;52.95;26.80;;;7.50;99.90;;;;;;5069981;28;20028;-53
2023/04/08 07:05:37;;;;;;;44.78;24.85;;;7.60;99.90;;;;;;5069008;28;20612;-51
2023/04/08 07:08:03;;;;;;;47.20;26.85;;;7.70;99.90;;;;;;5090870;28;20028;-53
2023/04/08 07:10:28;;;;;;;48.13;27.83;;;7.80;99.90;;;;;;5088427;28;20547;-54
2023/04/08 07:12:54;;;;;;;44.67;26.17;;;7.80;99.90;;;;;;5071185;28;20029;-55
2023/04/08 07:15:19;;;;;;;41.25;22.95;;;7.80;99.90;;;;;;5079796;28;20043;-52
2023/04/08 07:17:46;;;;;;;42.90;24.60;;;7.90;99.90;;;;;;5088216;28;20389;-55
2023/04/08 07:20:12;;;;;;;43.72;24.88;;;8.00;99.90;;;;;;5091387;28;20582;-52
2023/04/08 07:22:38;;;;;;;39.40;23.00;;;8.00;99.90;;;;;;5068460;28;20036;-54
2023/04/08 07:25:04;;;;;;;35.72;21.70;;;8.00;99.90;;;;;;5089285;28;20032;-53
2023/04/08 07:27:30;;;;;;;39.53;23.42;;;8.10;99.90;;;;;;5069860;28;20744;-55
2023/04/08 07:29:56;;;;;;;41.70;24.63;;;8.20;99.90;;;;;;5080808;28;20078;-53
2023/04/08 07:32:22;;;;;;;43.60;23.25;;;8.30;99.90;;;;;;5086937;28;20024;-51
2023/04/08 07:34:48;;;;;;;37.50;23.13;;;8.20;99.90;;;;;;5085969;28;20103;-53
2023/04/08 07:37:13;;;;;;;40.20;23.88;;;8.20;99.90;;;;;;5088355;28;20032;-54
2023/04/08 07:39:39;;;;;;;42.20;23.50;;;8.30;99.90;;;;;;5083913;28;20492;-52
2023/04/08 07:42:04;;;;;;;38.65;23.80;;;8.30;99.90;;;;;;5071838;28;20041;-51
2023/04/08 07:44:30;;;;;;;35.03;21.55;;;8.30;99.90;;;;;;5078045;28;20074;-49
2023/04/08 07:46:55;;;;;;;36.20;22.52;;;8.30;99.90;;;;;;5084770;28;20071;-51
2023/04/08 07:49:21;;;;;;;38.78;21.92;;;8.30;99.90;;;;;;5075000;28;20052;-53
2023/04/08 07:51:46;;;;;;;38.28;21.73;;;8.40;99.90;;;;;;5090556;28;20107;-52
2023/04/08 07:54:16;;;;;;;34.90;21.13;;;8.50;99.90;;;;;;5074756;28;20038;-49
2023/04/08 07:56:43;;;;;;;34.90;21.90;;;8.60;99.90;;;;;;5090694;28;20046;-53
2023/04/08 07:59:09;;;;;;;37.75;22.95;;;8.60;99.90;;;;;;5072106;28;20027;-54
2023/04/08 08:01:35;;;;;;;38.25;22.50;;;8.60;99.90;;;;;;5082135;28;20031;-55
2023/04/08 08:04:00;;;;;;;39.67;22.13;;;8.60;99.90;;;;;;5084189;28;20017;-54
2023/04/08 08:06:31;;;;;;;35.55;21.55;;;8.50;99.90;;;;;;5080834;28;20070;-52
2023/04/08 08:08:57;;;;;;;35.58;20.83;;;8.50;99.90;;;;;;5060903;28;20040;-53
2023/04/08 08:11:22;;;;;;;35.50;20.77;;;8.60;99.90;;;;;;5090462;28;20032;-51
2023/04/08 08:13:48;;;;;;;32.60;20.83;;;8.70;99.90;;;;;;5083339;28;20524;-52
2023/04/08 08:16:13;;;;;;;36.30;22.13;;;8.70;99.90;;;;;;5089225;28;20081;-50
2023/04/08 08:18:40;;;;;;;38.38;23.25;;;8.60;99.90;;;;;;5090374;28;20032;-53
2023/04/08 08:21:06;;;;;;;36.97;20.92;;;8.50;99.90;;;;;;5088236;28;20024;-53
2023/04/08 08:23:32;;;;;;;32.33;19.80;;;8.60;99.90;;;;;;5071838;28;20111;-51
2023/04/08 08:26:03;;;;;;;33.88;20.23;;;8.70;99.90;;;;;;5087607;28;20120;-51
2023/04/08 08:28:28;;;;;;;44.60;25.30;;;8.70;99.90;;;;;;5080326;28;20671;-52
2023/04/08 08:30:53;;;;;;;36.50;22.13;;;8.60;99.90;;;;;;5068154;28;20048;-54
2023/04/08 08:33:19;;;;;;;38.42;23.02;;;8.70;99.90;;;;;;5079313;28;20408;-54
2023/04/08 08:35:45;;;;;;;43.72;24.02;;;8.70;99.90;;;;;;5069481;28;20116;-51
2023/04/08 08:38:12;;;;;;;35.30;21.60;;;8.80;99.90;;;;;;5086696;28;20020;-55
2023/04/08 08:40:38;;;;;;;37.25;20.10;;;8.70;99.90;;;;;;5089456;28;20024;-53
2023/04/08 08:43:03;;;;;;;37.00;20.75;;;8.80;99.90;;;;;;5087174;28;20035;-49
2023/04/08 08:45:29;;;;;;;32.67;19.90;;;9.00;99.90;;;;;;5089889;28;20036;-51
2023/04/08 08:47:56;;;;;;;36.28;22.00;;;9.00;99.90;;;;;;5063830;28;20035;-52
2023/04/08 08:50:21;;;;;;;34.47;20.55;;;9.10;99.90;;;;;;5087630;28;20107;-53
2023/04/08 08:52:48;;;;;;;35.22;20.73;;;9.10;99.90;;;;;;5076885;28;20103;-53
2023/04/08 08:55:16;;;;;;;37.05;22.27;;;9.30;99.90;;;;;;5073251;28;20024;-54
2023/04/08 08:57:42;;;;;;;40.00;24.15;;;9.40;99.90;;;;;;5078378;28;20103;-54
2023/04/08 09:00:08;;;;;;;37.88;23.45;;;9.40;99.90;;;;;;5087353;28;20111;-55
2023/04/08 09:02:34;;;;;;;40.35;22.98;;;9.40;99.90;;;;;;5087251;28;20569;-53
2023/04/08 09:05:01;;;;;;;42.63;23.73;;;9.30;99.90;;;;;;5072425;28;20032;-53
2023/04/08 09:07:28;;;;;;;42.05;24.38;;;9.30;99.90;;;;;;5084598;28;20436;-53
2023/04/08 09:09:56;;;;;;;41.70;24.63;;;9.30;99.90;;;;;;5087347;28;20084;-55
2023/04/08 09:12:22;;;;;;;35.30;21.00;;;9.20;99.90;;;;;;5073012;28;20024;-53
2023/04/08 09:14:48;;;;;;;37.80;22.17;;;9.40;99.90;;;;;;5088933;28;20028;-51
2023/04/08 09:17:15;;;;;;;32.55;20.40;;;9.50;99.90;;;;;;5072009;28;20088;-53
2023/04/08 09:20:08;;;;;;;35.90;20.52;;;9.70;99.90;;;;;;5089045;28;20027;-50
2023/04/08 09:22:34;;;;;;;40.47;23.08;;;10.20;99.90;;;;;;5046777;28;20029;-53
2023/04/08 09:25:00;;;;;;;33.00;21.05;;;10.40;99.90;;;;;;5085638;28;20032;-53
2023/04/08 09:27:35;;;;;;;35.13;21.75;;;10.30;99.90;;;;;;5063734;28;20404;-51
2023/04/08 09:30:13;;;;;;;37.05;21.17;;;10.20;99.90;;;;;;5085650;28;20595;-55
2023/04/08 09:32:54;;;;;;;37.30;19.25;;;10.30;99.90;;;;;;5081182;28;20048;-50
2023/04/08 09:35:21;;;;;;;33.85;20.55;;;10.60;99.90;;;;;;5086492;28;20423;-52
2023/04/08 09:37:47;;;;;;;32.90;19.73;;;10.80;98.00;;;;;;5069821;28;20054;-54
2023/04/08 09:40:15;;;;;;;29.88;19.88;;;11.30;94.70;;;;;;5082428;28;20036;-49
2023/04/08 09:42:43;;;;;;;35.25;20.88;;;11.50;95.50;;;;;;5073983;28;20402;-54
2023/04/08 09:45:10;;;;;;;30.77;20.45;;;11.50;92.50;;;;;;5083858;28;20036;-50
2023/04/08 09:47:54;;;;;;;30.00;20.80;;;11.50;91.80;;;;;;5075352;28;20043;-52
2023/04/08 09:50:26;;;;;;;32.88;20.40;;;11.10;92.90;;;;;;5065091;28;20036;-54
2023/04/08 09:52:59;;;;;;;31.88;19.08;;;11.00;95.20;;;;;;5070642;28;20025;-52
2023/04/08 09:55:26;;;;;;;32.50;19.92;;;11.20;95.80;;;;;;5065227;28;20609;-50
2023/04/08 09:58:00;;;;;;;25.05;17.92;;;11.10;91.80;;;;;;5079180;28;20056;-52
2023/04/08 10:00:33;;;;;;;27.92;16.85;;;10.90;94.00;;;;;;5068228;28;20107;-56
2023/04/08 10:03:39;;;;;;;29.52;18.73;;;10.90;95.10;;;;;;5077160;28;20075;-54
2023/04/08 10:06:07;;;;;;;27.65;17.33;;;10.80;93.70;;;;;;5065639;28;20503;-55
2023/04/08 10:08:33;;;;;;;30.52;20.08;;;11.20;94.90;;;;;;5070699;28;20028;-54
2023/04/08 10:10:59;;;;;;;26.23;17.08;;;11.30;92.20;;;;;;5085691;28;20141;-53
2023/04/08 10:13:27;;;;;;;23.80;16.85;;;11.50;93.10;;;;;;5069573;28;20495;-51
2023/04/08 10:16:16;;;;;;;25.70;17.17;;;11.60;86.50;;;;;;5085387;28;20030;-56
2023/04/08 10:18:43;;;;;;;23.77;16.17;;;11.70;89.00;;;;;;5058290;28;20108;-50
2023/04/08 10:21:37;;;;;;;26.55;16.88;;;11.60;88.10;;;;;;5073960;28;20044;-53
2023/04/08 10:24:08;;;;;;;26.02;17.55;;;11.50;90.40;;;;;;5063807;28;20024;-51
2023/04/08 10:26:47;;;;;;;22.77;15.85;;;11.40;89.80;;;;;;5085439;28;20031;-55
2023/04/08 10:29:28;;;;;;;23.20;14.63;;;11.30;83.40;;;;;;5066051;28;20033;-54
2023/04/08 10:31:54;;;;;;;22.77;14.95;;;11.10;88.60;;;;;;5089781;28;20021;-50
2023/04/08 10:34:22;;;;;;;24.20;15.00;;;11.20;89.70;;;;;;5069507;28;20068;-54
2023/04/08 10:36:48;;;;;;;23.15;15.57;;;11.10;89.60;;;;;;5091040;28;20647;-52
2023/04/08 10:39:15;;;;;;;22.23;15.38;;;11.10;89.80;;;;;;5069958;28;20360;-52
2023/04/08 10:41:45;;;;;;;23.73;15.65;;;11.20;90.80;;;;;;5090605;28;20020;-50
2023/04/08 10:44:18;;;;;;;24.75;15.52;;;11.10;87.30;;;;;;5069708;28;20017;-52
2023/04/08 10:46:45;;;;;;;22.58;15.07;;;11.20;90.60;;;;;;5089043;28;20115;-53
2023/04/08 10:49:10;;;;;;;27.42;17.63;;;11.20;88.90;;;;;;5068889;28;20029;-54
2023/04/08 10:51:37;;;;;;;26.20;16.48;;;11.20;90.30;;;;;;5064362;28;20382;-53
2023/04/08 10:54:10;;;;;;;24.27;16.15;;;11.00;87.50;;;;;;5088088;28;20495;-51
2023/04/08 10:56:42;;;;;;;26.48;17.02;;;11.00;87.30;;;;;;5078660;28;20039;-51
2023/04/08 10:59:08;;;;;;;22.20;15.32;;;11.00;87.50;;;;;;5055983;28;20024;-54
2023/04/08 11:01:41;;;;;;;20.60;14.48;;;11.30;89.10;;;;;;5073613;28;20025;-53
2023/04/08 11:04:14;;;;;;;24.77;16.15;;;11.40;86.70;;;;;;5083746;28;20028;-52
2023/04/08 11:06:42;;;;;;;17.50;13.07;;;11.20;83.30;;;;;;5072743;28;20024;-52
2023/04/08 11:09:08;;;;;;;13.80;9.90;;;11.60;82.60;;;;;;5087633;28;20497;-51
2023/04/08 11:11:34;;;;;;;15.48;11.35;;;12.00;84.30;;;;;;5086434;28;20040;-54
2023/04/08 11:14:00;;;;;;;15.38;10.77;;;12.30;73.00;;;;;;5089385;28;20404;-50
2023/04/08 11:16:26;;;;;;;13.82;10.43;;;12.30;69.60;;;;;;5076498;28;20028;-50
2023/04/08 11:18:52;;;;;;;13.55;9.63;;;12.20;67.40;;;;;;5070236;28;20040;-51
2023/04/08 11:21:19;;;;;;;12.48;9.98;;;12.00;64.70;;;;;;5076686;28;20039;-51
2023/04/08 11:23:44;;;;;;;12.70;9.57;;;11.80;65.20;;;;;;5078579;28;20077;-53
2023/04/08 11:26:10;;;;;;;11.23;8.80;;;11.80;63.50;;;;;;5077267;28;20032;-49
2023/04/08 11:28:36;;;;;;;11.73;8.95;;;11.80;65.00;;;;;;5082694;28;20037;-49
2023/04/08 11:31:03;;;;;;;10.95;8.50;;;11.90;64.80;;;;;;5087031;28;20028;-59
2023/04/08 11:33:31;;;;;;;10.13;7.35;;;12.00;63.90;;;;;;5079269;28;20048;-56
2023/04/08 11:35:56;;;;;;;11.00;7.80;;;12.20;61.40;;;;;;5076953;28;20032;-58
2023/04/08 11:38:23;;;;;;;13.18;9.48;;;12.20;64.40;;;;;;5081763;28;20029;-56
2023/04/08 11:40:57;;;;;;;13.73;10.45;;;12.20;58.60;;;;;;5085321;28;20169;-56
2023/04/08 11:43:23;;;;;;;13.35;10.45;;;12.10;59.70;;;;;;5088421;28;20024;-57
2023/04/08 11:45:49;;;;;;;11.57;8.85;;;11.90;59.70;;;;;;5072651;28;20113;-57
2023/04/08 11:48:16;;;;;;;11.30;8.77;;;12.00;61.80;;;;;;5077897;28;20539;-55
2023/04/08 11:50:43;;;;;;;10.35;8.18;;;12.20;59.90;;;;;;5066096;28;20111;-57
2023/04/08 11:53:24;;;;;;;10.20;7.65;;;12.50;60.90;;;;;;5076931;28;20028;-57
2023/04/08 11:55:50;;;;;;;12.70;9.13;;;12.70;59.30;;;;;;5075833;28;20131;-57
2023/04/08 11:58:15;;;;;;;10.98;7.55;;;12.60;57.20;;;;;;5086255;28;20138;-58
2023/04/08 12:00:41;;;;;;;10.27;8.00;;;12.70;60.20;;;;;;5063781;28;20132;-57
2023/04/08 12:03:07;;;;;;;13.55;9.63;;;12.90;59.70;;;;;;5071077;28;20434;-59
2023/04/08 12:05:33;;;;;;;13.73;8.50;;;12.80;55.90;;;;;;5071852;28;20114;-59
2023/04/08 12:07:58;;;;;;;11.35;9.43;;;12.90;59.00;;;;;;5077159;28;20505;-57
2023/04/08 12:10:24;;;;;;;11.07;7.95;;;13.00;53.10;;;;;;5075358;28;20078;-59
2023/04/08 12:12:50;;;;;;;13.35;9.50;;;12.90;54.20;;;;;;5078923;28;20035;-58
2023/04/08 12:15:16;;;;;;;13.20;10.13;;;12.80;52.80;;;;;;5068499;28;20050;-58
2023/04/08 12:17:42;;;;;;;14.60;9.88;;;12.70;55.80;;;;;;5072725;28;20020;-58
2023/04/08 12:20:08;;;;;;;12.60;9.02;;;12.50;55.60;;;;;;5090442;28;20024;-58
2023/04/08 12:22:34;;;;;;;12.18;8.45;;;12.60;56.10;;;;;;5085898;28;20090;-57
2023/04/08 12:25:01;;;;;;;13.98;10.05;;;12.80;54.30;;;;;;5081752;28;20047;-57
2023/04/08 12:27:27;;;;;;;10.50;8.10;;;12.80;52.70;;;;;;5081015;28;20081;-57
2023/04/08 12:29:52;;;;;;;12.00;8.45;;;12.90;54.20;;;;;;5089447;28;20024;-57
2023/04/08 12:32:18;;;;;;;14.15;9.80;;;13.00;54.10;;;;;;5073317;28;20727;-58
2023/04/08 12:34:43;;;;;;;13.90;10.20;;;13.00;53.00;;;;;;5066726;28;20040;-57
2023/04/08 12:37:09;;;;;;;13.38;9.52;;;12.90;53.00;;;;;;5067349;28;20040;-59